sensor_id;sensor_type;location;lat;lon;timestamp;pressure;altitude;pressure_sealevel;temperature;humidity
29467;BME280;60968;37.490;-122.288;2022-07-26T00:01:47;98363.72;;;20.64;57.88
29467;BME280;60968;37.490;-122.288;2022-07-26T00:04:48;98369.19;;;20.48;58.16
29467;BME280;60968;37.490;-122.288;2022-07-26T00:07:49;98367.47;;;20.20;59.06
29467;BME280;60968;37.490;-122.288;2022-07-26T00:10:50;98373.16;;;19.99;60.03
29467;BME280;60968;37.490;-122.288;2022-07-26T00:13:51;98371.03;;;19.92;60.62
29467;BME280;60968;37.490;-122.288;2022-07-26T00:16:52;98367.50;;;19.77;60.88
29467;BME280;60968;37.490;-122.288;2022-07-26T00:19:53;98378.81;;;19.79;61.27
29467;BME280;60968;37.490;-122.288;2022-07-26T00:22:54;98376.75;;;19.98;60.90
29467;BME280;60968;37.490;-122.288;2022-07-26T00:25:55;98366.56;;;19.92;60.81
29467;BME280;60968;37.490;-122.288;2022-07-26T00:28:56;98368.66;;;19.87;61.18
29467;BME280;60968;37.490;-122.288;2022-07-26T00:31:56;98370.63;;;19.69;61.44
29467;BME280;60968;37.490;-122.288;2022-07-26T00:34:57;98369.28;;;19.47;62.06
29467;BME280;60968;37.490;-122.288;2022-07-26T00:37:58;98373.84;;;19.00;64.06
29467;BME280;60968;37.490;-122.288;2022-07-26T00:40:59;98371.63;;;19.09;63.74
29467;BME280;60968;37.490;-122.288;2022-07-26T00:44:00;98363.28;;;18.84;64.85
29467;BME280;60968;37.490;-122.288;2022-07-26T00:47:01;98367.59;;;18.71;65.22
29467;BME280;60968;37.490;-122.288;2022-07-26T00:50:06;98360.44;;;18.73;65.30
29467;BME280;60968;37.490;-122.288;2022-07-26T00:53:07;98362.03;;;18.76;65.51
29467;BME280;60968;37.490;-122.288;2022-07-26T00:56:08;98373.81;;;18.70;65.71
29467;BME280;60968;37.490;-122.288;2022-07-26T00:59:09;98365.84;;;18.56;66.38
29467;BME280;60968;37.490;-122.288;2022-07-26T01:02:10;98364.91;;;18.57;66.38
29467;BME280;60968;37.490;-122.288;2022-07-26T01:05:11;98367.28;;;18.61;66.42
29467;BME280;60968;37.490;-122.288;2022-07-26T01:08:12;98359.78;;;18.69;65.93
29467;BME280;60968;37.490;-122.288;2022-07-26T01:11:13;98371.53;;;18.64;66.03
29467;BME280;60968;37.490;-122.288;2022-07-26T01:14:14;98367.78;;;18.52;66.76
29467;BME280;60968;37.490;-122.288;2022-07-26T01:17:15;98362.69;;;18.49;67.02
29467;BME280;60968;37.490;-122.288;2022-07-26T01:20:16;98360.97;;;18.48;67.07
29467;BME280;60968;37.490;-122.288;2022-07-26T01:23:17;98360.75;;;18.37;67.73
29467;BME280;60968;37.490;-122.288;2022-07-26T01:26:19;98354.63;;;18.36;67.55
29467;BME280;60968;37.490;-122.288;2022-07-26T01:29:20;98347.00;;;18.31;67.82
29467;BME280;60968;37.490;-122.288;2022-07-26T01:32:21;98350.03;;;18.24;68.22
29467;BME280;60968;37.490;-122.288;2022-07-26T01:35:22;98350.66;;;18.13;68.71
29467;BME280;60968;37.490;-122.288;2022-07-26T01:38:23;98354.97;;;17.98;68.76
29467;BME280;60968;37.490;-122.288;2022-07-26T01:41:24;98350.44;;;17.84;69.76
29467;BME280;60968;37.490;-122.288;2022-07-26T01:44:25;98352.63;;;17.76;70.15
29467;BME280;60968;37.490;-122.288;2022-07-26T01:47:25;98351.25;;;17.53;71.24
29467;BME280;60968;37.490;-122.288;2022-07-26T01:50:26;98364.81;;;17.45;71.82
29467;BME280;60968;37.490;-122.288;2022-07-26T01:53:27;98354.78;;;17.36;72.57
29467;BME280;60968;37.490;-122.288;2022-07-26T01:56:28;98348.72;;;17.34;72.92
29467;BME280;60968;37.490;-122.288;2022-07-26T01:59:29;98357.22;;;17.39;72.79
29467;BME280;60968;37.490;-122.288;2022-07-26T02:02:29;98352.41;;;17.47;72.81
29467;BME280;60968;37.490;-122.288;2022-07-26T02:05:30;98353.78;;;17.54;72.55
29467;BME280;60968;37.490;-122.288;2022-07-26T02:08:31;98356.72;;;17.48;72.55
29467;BME280;60968;37.490;-122.288;2022-07-26T02:11:32;98366.03;;;17.55;72.57
29467;BME280;60968;37.490;-122.288;2022-07-26T02:14:33;98361.69;;;17.54;72.75
29467;BME280;60968;37.490;-122.288;2022-07-26T02:17:34;98362.53;;;17.55;72.62
29467;BME280;60968;37.490;-122.288;2022-07-26T02:20:35;98364.81;;;17.45;72.80
29467;BME280;60968;37.490;-122.288;2022-07-26T02:23:36;98366.38;;;17.31;73.45
29467;BME280;60968;37.490;-122.288;2022-07-26T02:26:37;98369.63;;;17.37;73.47
29467;BME280;60968;37.490;-122.288;2022-07-26T02:29:37;98366.47;;;17.30;73.75
29467;BME280;60968;37.490;-122.288;2022-07-26T02:32:38;98376.47;;;17.23;74.46
29467;BME280;60968;37.490;-122.288;2022-07-26T02:35:39;98375.53;;;17.24;74.34
29467;BME280;60968;37.490;-122.288;2022-07-26T02:38:40;98367.47;;;17.27;74.06
29467;BME280;60968;37.490;-122.288;2022-07-26T02:41:41;98371.38;;;17.20;74.33
29467;BME280;60968;37.490;-122.288;2022-07-26T02:44:42;98366.78;;;17.06;74.88
29467;BME280;60968;37.490;-122.288;2022-07-26T02:47:48;98367.56;;;17.08;74.91
29467;BME280;60968;37.490;-122.288;2022-07-26T02:50:49;98378.28;;;16.86;75.78
29467;BME280;60968;37.490;-122.288;2022-07-26T02:53:49;98372.69;;;16.75;76.34
29467;BME280;60968;37.490;-122.288;2022-07-26T02:56:50;98377.47;;;16.49;77.37
29467;BME280;60968;37.490;-122.288;2022-07-26T02:59:51;98385.25;;;16.33;78.55
29467;BME280;60968;37.490;-122.288;2022-07-26T03:02:52;98390.94;;;16.24;79.05
29467;BME280;60968;37.490;-122.288;2022-07-26T03:05:53;98394.69;;;16.18;79.77
29467;BME280;60968;37.490;-122.288;2022-07-26T03:08:54;98390.84;;;16.25;79.45
29467;BME280;60968;37.490;-122.288;2022-07-26T03:11:54;98390.50;;;16.33;79.13
29467;BME280;60968;37.490;-122.288;2022-07-26T03:14:55;98397.59;;;16.31;78.71
29467;BME280;60968;37.490;-122.288;2022-07-26T03:17:56;98395.84;;;16.32;78.96
29467;BME280;60968;37.490;-122.288;2022-07-26T03:20:57;98398.59;;;16.28;79.66
29467;BME280;60968;37.490;-122.288;2022-07-26T03:23:58;98396.34;;;16.21;79.42
29467;BME280;60968;37.490;-122.288;2022-07-26T03:26:59;98405.72;;;16.26;79.56
29467;BME280;60968;37.490;-122.288;2022-07-26T03:30:00;98406.09;;;16.19;80.30
29467;BME280;60968;37.490;-122.288;2022-07-26T03:33:01;98408.00;;;16.15;80.70
29467;BME280;60968;37.490;-122.288;2022-07-26T03:36:02;98417.28;;;16.22;80.57
29467;BME280;60968;37.490;-122.288;2022-07-26T03:39:03;98421.75;;;16.39;79.93
29467;BME280;60968;37.490;-122.288;2022-07-26T03:42:04;98422.88;;;16.53;79.21
29467;BME280;60968;37.490;-122.288;2022-07-26T03:45:05;98427.56;;;16.46;79.66
29467;BME280;60968;37.490;-122.288;2022-07-26T03:48:06;98436.16;;;16.50;79.69
29467;BME280;60968;37.490;-122.288;2022-07-26T03:51:07;98437.09;;;16.49;79.52
29467;BME280;60968;37.490;-122.288;2022-07-26T03:54:07;98433.75;;;16.45;79.53
29467;BME280;60968;37.490;-122.288;2022-07-26T03:57:08;98438.50;;;16.37;79.66
29467;BME280;60968;37.490;-122.288;2022-07-26T04:00:10;98443.09;;;16.33;80.20
29467;BME280;60968;37.490;-122.288;2022-07-26T04:03:11;98451.31;;;16.25;80.96
29467;BME280;60968;37.490;-122.288;2022-07-26T04:06:12;98444.38;;;16.24;80.74
29467;BME280;60968;37.490;-122.288;2022-07-26T04:09:14;98453.41;;;16.19;81.17
29467;BME280;60968;37.490;-122.288;2022-07-26T04:12:14;98451.88;;;16.13;81.57
29467;BME280;60968;37.490;-122.288;2022-07-26T04:15:16;98454.50;;;16.13;81.41
29467;BME280;60968;37.490;-122.288;2022-07-26T04:18:17;98453.00;;;16.07;81.89
29467;BME280;60968;37.490;-122.288;2022-07-26T04:21:17;98456.50;;;16.08;81.72
29467;BME280;60968;37.490;-122.288;2022-07-26T04:24:18;98460.88;;;16.07;81.65
29467;BME280;60968;37.490;-122.288;2022-07-26T04:27:19;98464.09;;;15.95;82.85
29467;BME280;60968;37.490;-122.288;2022-07-26T04:30:20;98471.38;;;15.88;83.33
29467;BME280;60968;37.490;-122.288;2022-07-26T04:33:21;98474.16;;;15.85;83.19
29467;BME280;60968;37.490;-122.288;2022-07-26T04:36:22;98474.13;;;15.65;84.48
29467;BME280;60968;37.490;-122.288;2022-07-26T04:39:23;98479.19;;;15.49;85.52
29467;BME280;60968;37.490;-122.288;2022-07-26T04:42:26;98476.66;;;15.47;85.50
29467;BME280;60968;37.490;-122.288;2022-07-26T04:45:28;98489.94;;;15.42;85.55
29467;BME280;60968;37.490;-122.288;2022-07-26T04:48:28;98490.34;;;15.33;85.99
29467;BME280;60968;37.490;-122.288;2022-07-26T04:51:29;98491.47;;;15.27;86.71
29467;BME280;60968;37.490;-122.288;2022-07-26T04:54:30;98490.91;;;15.19;87.15
29467;BME280;60968;37.490;-122.288;2022-07-26T04:57:31;98494.25;;;15.23;86.82
29467;BME280;60968;37.490;-122.288;2022-07-26T05:00:32;98500.69;;;15.16;87.25
29467;BME280;60968;37.490;-122.288;2022-07-26T05:03:32;98504.88;;;15.20;87.16
29467;BME280;60968;37.490;-122.288;2022-07-26T05:06:33;98508.56;;;15.16;87.29
29467;BME280;60968;37.490;-122.288;2022-07-26T05:09:34;98512.47;;;15.05;88.08
29467;BME280;60968;37.490;-122.288;2022-07-26T05:12:35;98506.19;;;14.87;88.83
29467;BME280;60968;37.490;-122.288;2022-07-26T05:15:36;98509.97;;;14.80;89.77
29467;BME280;60968;37.490;-122.288;2022-07-26T05:18:37;98504.28;;;14.69;90.69
29467;BME280;60968;37.490;-122.288;2022-07-26T05:21:37;98497.69;;;14.58;90.93
29467;BME280;60968;37.490;-122.288;2022-07-26T05:24:38;98496.88;;;14.56;90.34
29467;BME280;60968;37.490;-122.288;2022-07-26T05:27:39;98490.34;;;14.45;91.17
29467;BME280;60968;37.490;-122.288;2022-07-26T05:30:40;98487.09;;;14.38;91.87
29467;BME280;60968;37.490;-122.288;2022-07-26T05:33:41;98490.56;;;14.38;92.17
29467;BME280;60968;37.490;-122.288;2022-07-26T05:36:42;98490.16;;;14.49;91.88
29467;BME280;60968;37.490;-122.288;2022-07-26T05:39:43;98503.94;;;14.54;91.74
29467;BME280;60968;37.490;-122.288;2022-07-26T05:42:43;98493.34;;;14.57;92.08
29467;BME280;60968;37.490;-122.288;2022-07-26T05:45:44;98495.06;;;14.58;91.91
29467;BME280;60968;37.490;-122.288;2022-07-26T05:48:45;98501.34;;;14.54;92.49
29467;BME280;60968;37.490;-122.288;2022-07-26T05:51:46;98499.44;;;14.58;92.36
29467;BME280;60968;37.490;-122.288;2022-07-26T05:54:47;98497.00;;;14.53;92.65
29467;BME280;60968;37.490;-122.288;2022-07-26T05:57:47;98504.00;;;14.53;92.64
29467;BME280;60968;37.490;-122.288;2022-07-26T06:00:48;98496.31;;;14.48;93.04
29467;BME280;60968;37.490;-122.288;2022-07-26T06:03:49;98494.06;;;14.39;93.39
29467;BME280;60968;37.490;-122.288;2022-07-26T06:06:50;98499.44;;;14.34;94.00
29467;BME280;60968;37.490;-122.288;2022-07-26T06:09:51;98501.97;;;14.37;93.67
29467;BME280;60968;37.490;-122.288;2022-07-26T06:12:52;98501.34;;;14.31;93.86
29467;BME280;60968;37.490;-122.288;2022-07-26T06:15:53;98504.41;;;14.18;94.29
29467;BME280;60968;37.490;-122.288;2022-07-26T06:18:53;98499.69;;;14.04;95.33
29467;BME280;60968;37.490;-122.288;2022-07-26T06:21:54;98500.63;;;14.02;96.16
29467;BME280;60968;37.490;-122.288;2022-07-26T06:24:55;98499.34;;;13.90;97.07
29467;BME280;60968;37.490;-122.288;2022-07-26T06:27:56;98500.47;;;13.83;97.67
29467;BME280;60968;37.490;-122.288;2022-07-26T06:30:57;98507.31;;;13.87;96.47
29467;BME280;60968;37.490;-122.288;2022-07-26T06:33:58;98504.94;;;13.79;96.48
29467;BME280;60968;37.490;-122.288;2022-07-26T06:36:58;98498.44;;;13.66;97.67
29467;BME280;60968;37.490;-122.288;2022-07-26T06:40:16;98488.16;;;13.60;97.69
29467;BME280;60968;37.490;-122.288;2022-07-26T06:43:17;98484.75;;;13.58;98.31
29467;BME280;60968;37.490;-122.288;2022-07-26T06:46:18;98489.09;;;13.59;98.68
29467;BME280;60968;37.490;-122.288;2022-07-26T06:49:19;98490.91;;;13.57;99.66
29467;BME280;60968;37.490;-122.288;2022-07-26T06:52:20;98482.16;;;13.58;100.00
29467;BME280;60968;37.490;-122.288;2022-07-26T06:55:21;98495.22;;;13.58;99.87
29467;BME280;60968;37.490;-122.288;2022-07-26T06:58:21;98496.19;;;13.55;100.00
29467;BME280;60968;37.490;-122.288;2022-07-26T07:01:22;98496.19;;;13.55;100.00
29467;BME280;60968;37.490;-122.288;2022-07-26T07:04:23;98505.47;;;13.64;100.00
29467;BME280;60968;37.490;-122.288;2022-07-26T07:07:24;98513.94;;;13.72;100.00
29467;BME280;60968;37.490;-122.288;2022-07-26T07:10:25;98505.75;;;13.81;100.00
29467;BME280;60968;37.490;-122.288;2022-07-26T07:13:26;98518.84;;;13.81;100.00
29467;BME280;60968;37.490;-122.288;2022-07-26T07:16:28;98527.19;;;13.93;100.00
29467;BME280;60968;37.490;-122.288;2022-07-26T07:19:29;98533.03;;;13.99;100.00
29467;BME280;60968;37.490;-122.288;2022-07-26T07:22:30;98544.03;;;14.09;100.00
29467;BME280;60968;37.490;-122.288;2022-07-26T07:25:31;98547.47;;;14.11;99.99
29467;BME280;60968;37.490;-122.288;2022-07-26T07:28:32;98547.34;;;14.14;99.75
29467;BME280;60968;37.490;-122.288;2022-07-26T07:31:32;98541.34;;;14.12;100.00
29467;BME280;60968;37.490;-122.288;2022-07-26T07:34:33;98539.38;;;14.17;99.69
29467;BME280;60968;37.490;-122.288;2022-07-26T07:37:35;98533.41;;;14.14;99.78
29467;BME280;60968;37.490;-122.288;2022-07-26T07:40:36;98535.06;;;14.16;99.32
29467;BME280;60968;37.490;-122.288;2022-07-26T07:43:37;98526.19;;;14.20;98.95
29467;BME280;60968;37.490;-122.288;2022-07-26T07:46:38;98518.09;;;14.27;98.07
29467;BME280;60968;37.490;-122.288;2022-07-26T07:49:38;98524.81;;;14.34;97.75
29467;BME280;60968;37.490;-122.288;2022-07-26T07:52:39;98519.88;;;14.26;98.61
29467;BME280;60968;37.490;-122.288;2022-07-26T07:55:40;98525.13;;;14.26;98.43
29467;BME280;60968;37.490;-122.288;2022-07-26T07:58:41;98525.56;;;14.37;97.33
29467;BME280;60968;37.490;-122.288;2022-07-26T08:01:42;98507.84;;;14.20;99.84
29467;BME280;60968;37.490;-122.288;2022-07-26T08:04:43;98514.84;;;14.20;100.00
29467;BME280;60968;37.490;-122.288;2022-07-26T08:07:44;98517.97;;;14.30;100.00
29467;BME280;60968;37.490;-122.288;2022-07-26T08:10:44;98520.34;;;14.36;100.00
29467;BME280;60968;37.490;-122.288;2022-07-26T08:13:45;98521.44;;;14.30;100.00
29467;BME280;60968;37.490;-122.288;2022-07-26T08:16:46;98518.88;;;14.29;100.00
29467;BME280;60968;37.490;-122.288;2022-07-26T08:19:47;98519.31;;;14.40;100.00
29467;BME280;60968;37.490;-122.288;2022-07-26T08:22:48;98508.81;;;14.41;99.88
29467;BME280;60968;37.490;-122.288;2022-07-26T08:25:49;98510.75;;;14.36;99.51
29467;BME280;60968;37.490;-122.288;2022-07-26T08:28:50;98512.78;;;14.28;99.34
29467;BME280;60968;37.490;-122.288;2022-07-26T08:31:51;98522.94;;;14.14;100.00
29467;BME280;60968;37.490;-122.288;2022-07-26T08:34:52;98520.38;;;14.12;100.00
29467;BME280;60968;37.490;-122.288;2022-07-26T08:37:52;98532.41;;;13.93;100.00
29467;BME280;60968;37.490;-122.288;2022-07-26T08:40:53;98530.88;;;13.87;100.00
29467;BME280;60968;37.490;-122.288;2022-07-26T08:44:04;98530.16;;;13.82;100.00
29467;BME280;60968;37.490;-122.288;2022-07-26T08:47:05;98543.16;;;13.85;100.00
29467;BME280;60968;37.490;-122.288;2022-07-26T08:50:06;98532.72;;;13.83;100.00
29467;BME280;60968;37.490;-122.288;2022-07-26T08:53:08;98525.69;;;13.85;100.00
29467;BME280;60968;37.490;-122.288;2022-07-26T08:56:09;98528.09;;;13.92;100.00
29467;BME280;60968;37.490;-122.288;2022-07-26T08:59:12;98526.72;;;13.81;100.00
29467;BME280;60968;37.490;-122.288;2022-07-26T09:02:13;98518.94;;;13.78;100.00
29467;BME280;60968;37.490;-122.288;2022-07-26T09:05:14;98522.91;;;13.90;100.00
29467;BME280;60968;37.490;-122.288;2022-07-26T09:08:27;98529.28;;;13.83;100.00
29467;BME280;60968;37.490;-122.288;2022-07-26T09:11:31;98520.22;;;13.92;100.00
29467;BME280;60968;37.490;-122.288;2022-07-26T09:14:36;98513.16;;;13.94;100.00
29467;BME280;60968;37.490;-122.288;2022-07-26T09:17:45;98512.66;;;14.07;100.00
29467;BME280;60968;37.490;-122.288;2022-07-26T09:20:46;98507.28;;;14.12;100.00
29467;BME280;60968;37.490;-122.288;2022-07-26T09:24:05;98516.34;;;14.02;99.23
29467;BME280;60968;37.490;-122.288;2022-07-26T09:27:09;98519.34;;;14.16;98.54
29467;BME280;60968;37.490;-122.288;2022-07-26T09:30:11;98524.91;;;14.07;97.18
29467;BME280;60968;37.490;-122.288;2022-07-26T09:33:12;98525.34;;;13.69;98.68
29467;BME280;60968;37.490;-122.288;2022-07-26T09:36:13;98527.84;;;13.74;99.20
29467;BME280;60968;37.490;-122.288;2022-07-26T09:39:14;98521.72;;;13.73;98.70
29467;BME280;60968;37.490;-122.288;2022-07-26T09:42:15;98519.34;;;13.67;98.95
29467;BME280;60968;37.490;-122.288;2022-07-26T09:45:16;98517.66;;;13.65;99.43
29467;BME280;60968;37.490;-122.288;2022-07-26T09:48:26;98523.25;;;13.54;100.00
29467;BME280;60968;37.490;-122.288;2022-07-26T09:51:38;98518.97;;;13.53;100.00
29467;BME280;60968;37.490;-122.288;2022-07-26T09:54:40;98521.66;;;13.50;100.00
29467;BME280;60968;37.490;-122.288;2022-07-26T09:57:41;98513.72;;;13.53;100.00
29467;BME280;60968;37.490;-122.288;2022-07-26T10:00:42;98515.34;;;13.55;100.00
29467;BME280;60968;37.490;-122.288;2022-07-26T10:03:43;98523.97;;;13.59;100.00
29467;BME280;60968;37.490;-122.288;2022-07-26T10:06:44;98522.78;;;13.68;100.00
29467;BME280;60968;37.490;-122.288;2022-07-26T10:09:53;98517.38;;;13.74;100.00
29467;BME280;60968;37.490;-122.288;2022-07-26T10:12:57;98525.09;;;13.77;100.00
29467;BME280;60968;37.490;-122.288;2022-07-26T10:15:59;98522.59;;;13.74;100.00
29467;BME280;60968;37.490;-122.288;2022-07-26T10:19:00;98521.28;;;13.61;100.00
29467;BME280;60968;37.490;-122.288;2022-07-26T10:22:41;98517.78;;;13.62;100.00
29467;BME280;60968;37.490;-122.288;2022-07-26T10:25:45;98514.88;;;13.69;100.00
29467;BME280;60968;37.490;-122.288;2022-07-26T10:28:46;98509.09;;;13.60;100.00
29467;BME280;60968;37.490;-122.288;2022-07-26T10:31:48;98520.69;;;13.52;100.00
29467;BME280;60968;37.490;-122.288;2022-07-26T10:34:49;98514.69;;;13.50;100.00
29467;BME280;60968;37.490;-122.288;2022-07-26T10:37:57;98519.78;;;13.53;100.00
29467;BME280;60968;37.490;-122.288;2022-07-26T10:41:04;98511.25;;;13.48;100.00
29467;BME280;60968;37.490;-122.288;2022-07-26T10:44:26;98516.69;;;13.42;100.00
29467;BME280;60968;37.490;-122.288;2022-07-26T10:47:27;98513.00;;;13.48;100.00
29467;BME280;60968;37.490;-122.288;2022-07-26T10:50:34;98513.19;;;13.43;100.00
29467;BME280;60968;37.490;-122.288;2022-07-26T10:53:35;98525.56;;;13.38;100.00
29467;BME280;60968;37.490;-122.288;2022-07-26T10:56:38;98521.59;;;13.51;100.00
29467;BME280;60968;37.490;-122.288;2022-07-26T10:59:39;98516.69;;;13.42;100.00
29467;BME280;60968;37.490;-122.288;2022-07-26T11:02:40;98523.66;;;13.43;100.00
29467;BME280;60968;37.490;-122.288;2022-07-26T11:05:41;98518.09;;;13.52;100.00
29467;BME280;60968;37.490;-122.288;2022-07-26T11:08:45;98516.28;;;13.54;100.00
29467;BME280;60968;37.490;-122.288;2022-07-26T11:11:46;98520.41;;;13.62;99.85
29467;BME280;60968;37.490;-122.288;2022-07-26T11:14:47;98519.78;;;13.53;100.00
29467;BME280;60968;37.490;-122.288;2022-07-26T11:17:48;98521.41;;;13.58;100.00
29467;BME280;60968;37.490;-122.288;2022-07-26T11:20:51;98526.00;;;13.51;100.00
29467;BME280;60968;37.490;-122.288;2022-07-26T11:24:01;98523.38;;;13.51;100.00
29467;BME280;60968;37.490;-122.288;2022-07-26T11:27:03;98516.16;;;13.58;100.00
29467;BME280;60968;37.490;-122.288;2022-07-26T11:30:04;98517.25;;;13.52;100.00
29467;BME280;60968;37.490;-122.288;2022-07-26T11:33:05;98521.59;;;13.51;100.00
29467;BME280;60968;37.490;-122.288;2022-07-26T11:36:06;98527.75;;;13.50;100.00
29467;BME280;60968;37.490;-122.288;2022-07-26T11:39:12;98520.69;;;13.52;100.00
29467;BME280;60968;37.490;-122.288;2022-07-26T11:42:13;98535.38;;;13.57;100.00
29467;BME280;60968;37.490;-122.288;2022-07-26T11:45:14;98536.94;;;13.62;100.00
29467;BME280;60968;37.490;-122.288;2022-07-26T11:48:15;98543.53;;;13.74;100.00
29467;BME280;60968;37.490;-122.288;2022-07-26T11:51:18;98543.09;;;13.86;100.00
29467;BME280;60968;37.490;-122.288;2022-07-26T11:54:24;98542.31;;;13.84;100.00
29467;BME280;60968;37.490;-122.288;2022-07-26T11:57:29;98544.91;;;13.84;100.00
29467;BME280;60968;37.490;-122.288;2022-07-26T12:00:31;98550.09;;;13.86;100.00
29467;BME280;60968;37.490;-122.288;2022-07-26T12:03:36;98555.13;;;13.92;100.00
29467;BME280;60968;37.490;-122.288;2022-07-26T12:06:38;98551.72;;;13.90;100.00
29467;BME280;60968;37.490;-122.288;2022-07-26T12:12:46;98548.25;;;13.89;100.00
29467;BME280;60968;37.490;-122.288;2022-07-26T12:15:51;98555.41;;;13.84;100.00
29467;BME280;60968;37.490;-122.288;2022-07-26T12:18:52;98556.34;;;13.82;99.74
29467;BME280;60968;37.490;-122.288;2022-07-26T12:22:05;98559.69;;;13.87;100.00
29467;BME280;60968;37.490;-122.288;2022-07-26T12:25:07;98571.91;;;13.86;99.71
29467;BME280;60968;37.490;-122.288;2022-07-26T12:28:08;98573.63;;;13.87;99.02
29467;BME280;60968;37.490;-122.288;2022-07-26T12:31:26;98569.28;;;13.86;99.62
29467;BME280;60968;37.490;-122.288;2022-07-26T12:34:28;98576.22;;;13.87;99.21
29467;BME280;60968;37.490;-122.288;2022-07-26T12:37:30;98588.53;;;13.85;100.00
29467;BME280;60968;37.490;-122.288;2022-07-26T12:40:40;98587.72;;;13.83;100.00
29467;BME280;60968;37.490;-122.288;2022-07-26T12:43:40;98575.22;;;13.92;100.00
29467;BME280;60968;37.490;-122.288;2022-07-26T12:46:41;98575.94;;;13.97;100.00
29467;BME280;60968;37.490;-122.288;2022-07-26T12:49:42;98577.41;;;14.04;100.00
29467;BME280;60968;37.490;-122.288;2022-07-26T12:52:43;98572.00;;;14.09;99.42
29467;BME280;60968;37.490;-122.288;2022-07-26T12:55:44;98575.31;;;14.14;98.48
29467;BME280;60968;37.490;-122.288;2022-07-26T12:58:45;98587.84;;;14.05;99.07
29467;BME280;60968;37.490;-122.288;2022-07-26T13:01:46;98584.38;;;14.05;98.80
29467;BME280;60968;37.490;-122.288;2022-07-26T13:04:48;98582.84;;;13.98;99.11
29467;BME280;60968;37.490;-122.288;2022-07-26T13:07:49;98589.81;;;13.99;99.85
29467;BME280;60968;37.490;-122.288;2022-07-26T13:10:49;98587.00;;;14.05;99.04
29467;BME280;60968;37.490;-122.288;2022-07-26T13:13:50;98586.81;;;14.10;98.89
29467;BME280;60968;37.490;-122.288;2022-07-26T13:16:51;98589.38;;;14.11;98.94
29467;BME280;60968;37.490;-122.288;2022-07-26T13:19:52;98593.50;;;14.18;98.50
29467;BME280;60968;37.490;-122.288;2022-07-26T13:22:53;98587.34;;;14.19;98.65
29467;BME280;60968;37.490;-122.288;2022-07-26T13:25:54;98587.19;;;14.24;98.16
29467;BME280;60968;37.490;-122.288;2022-07-26T13:28:54;98593.97;;;14.30;98.32
29467;BME280;60968;37.490;-122.288;2022-07-26T13:31:56;98603.53;;;14.31;98.86
29467;BME280;60968;37.490;-122.288;2022-07-26T13:34:57;98601.81;;;14.30;99.03
29467;BME280;60968;37.490;-122.288;2022-07-26T13:37:58;98606.69;;;14.40;98.53
29467;BME280;60968;37.490;-122.288;2022-07-26T13:41:00;98608.06;;;14.51;97.93
29467;BME280;60968;37.490;-122.288;2022-07-26T13:44:00;98607.94;;;14.54;97.39
29467;BME280;60968;37.490;-122.288;2022-07-26T13:47:01;98611.31;;;14.57;97.40
29467;BME280;60968;37.490;-122.288;2022-07-26T13:50:02;98603.31;;;14.62;97.13
29467;BME280;60968;37.490;-122.288;2022-07-26T13:53:03;98608.81;;;14.54;96.60
29467;BME280;60968;37.490;-122.288;2022-07-26T13:56:04;98601.63;;;14.59;96.92
29467;BME280;60968;37.490;-122.288;2022-07-26T13:59:05;98603.56;;;14.54;95.56
29467;BME280;60968;37.490;-122.288;2022-07-26T14:02:06;98600.44;;;14.45;95.08
29467;BME280;60968;37.490;-122.288;2022-07-26T14:05:08;98609.47;;;14.36;94.92
29467;BME280;60968;37.490;-122.288;2022-07-26T14:08:08;98592.94;;;14.34;95.14
29467;BME280;60968;37.490;-122.288;2022-07-26T14:11:09;98594.50;;;14.39;94.38
29467;BME280;60968;37.490;-122.288;2022-07-26T14:14:10;98605.22;;;14.33;95.72
29467;BME280;60968;37.490;-122.288;2022-07-26T14:17:11;98604.19;;;14.37;94.48
29467;BME280;60968;37.490;-122.288;2022-07-26T14:20:13;98607.34;;;14.47;95.36
29467;BME280;60968;37.490;-122.288;2022-07-26T14:23:14;98601.63;;;14.59;94.14
29467;BME280;60968;37.490;-122.288;2022-07-26T14:26:14;98612.97;;;14.60;93.57
29467;BME280;60968;37.490;-122.288;2022-07-26T14:29:15;98607.25;;;14.74;94.46
29467;BME280;60968;37.490;-122.288;2022-07-26T14:32:16;98616.84;;;14.97;93.36
29467;BME280;60968;37.490;-122.288;2022-07-26T14:35:17;98619.56;;;15.18;92.77
29467;BME280;60968;37.490;-122.288;2022-07-26T14:38:18;98624.16;;;15.35;92.03
29467;BME280;60968;37.490;-122.288;2022-07-26T14:41:19;98630.66;;;15.69;91.00
29467;BME280;60968;37.490;-122.288;2022-07-26T14:44:20;98644.34;;;15.99;87.98
29467;BME280;60968;37.490;-122.288;2022-07-26T14:47:20;98642.75;;;15.95;86.97
29467;BME280;60968;37.490;-122.288;2022-07-26T14:50:21;98655.41;;;16.06;86.16
29467;BME280;60968;37.490;-122.288;2022-07-26T14:53:23;98658.69;;;15.90;87.17
29467;BME280;60968;37.490;-122.288;2022-07-26T14:56:24;98665.28;;;15.78;86.81
29467;BME280;60968;37.490;-122.288;2022-07-26T14:59:25;98661.19;;;15.49;89.00
29467;BME280;60968;37.490;-122.288;2022-07-26T15:02:26;98672.56;;;15.72;87.76
29467;BME280;60968;37.490;-122.288;2022-07-26T15:05:27;98673.34;;;15.96;88.07
29467;BME280;60968;37.490;-122.288;2022-07-26T15:08:28;98671.78;;;16.12;87.29
29467;BME280;60968;37.490;-122.288;2022-07-26T15:11:29;98668.78;;;16.22;86.14
29467;BME280;60968;37.490;-122.288;2022-07-26T15:14:29;98669.03;;;16.16;86.71
29467;BME280;60968;37.490;-122.288;2022-07-26T15:17:30;98680.34;;;16.18;87.28
29467;BME280;60968;37.490;-122.288;2022-07-26T15:20:31;98679.63;;;16.35;85.98
29467;BME280;60968;37.490;-122.288;2022-07-26T15:23:32;98676.31;;;16.50;85.33
29467;BME280;60968;37.490;-122.288;2022-07-26T15:26:33;98680.75;;;16.29;86.09